sensor_id;sensor_type;location;lat;lon;timestamp;pressure;altitude;pressure_sealevel;temperature;humidity
40788;BME280;26497;52.494;7.546;2022-12-11T00:02:23;100507.38;;;5.29;62.25
40788;BME280;26497;52.494;7.546;2022-12-11T00:04:50;100507.78;;;5.53;61.63
40788;BME280;26497;52.494;7.546;2022-12-11T00:07:17;100504.19;;;5.46;61.60
40788;BME280;26497;52.494;7.546;2022-12-11T00:09:44;100506.84;;;5.01;62.63
40788;BME280;26497;52.494;7.546;2022-12-11T00:12:11;100510.56;;;4.71;63.55
40788;BME280;26497;52.494;7.546;2022-12-11T00:14:38;100512.59;;;4.85;63.61
40788;BME280;26497;52.494;7.546;2022-12-11T00:17:06;100512.59;;;4.83;63.75
40788;BME280;26497;52.494;7.546;2022-12-11T00:19:33;100512.19;;;5.08;63.37
40788;BME280;26497;52.494;7.546;2022-12-11T00:22:00;100504.34;;;5.08;62.71
40788;BME280;26497;52.494;7.546;2022-12-11T00:24:27;100504.41;;;5.11;62.90
40788;BME280;26497;52.494;7.546;2022-12-11T00:26:54;100505.25;;;5.10;62.94
40788;BME280;26497;52.494;7.546;2022-12-11T00:29:21;100499.09;;;5.06;63.18
40788;BME280;26497;52.494;7.546;2022-12-11T00:31:48;100503.34;;;5.01;63.50
40788;BME280;26497;52.494;7.546;2022-12-11T00:34:16;100498.59;;;5.26;62.79
40788;BME280;26497;52.494;7.546;2022-12-11T00:36:43;100509.44;;;5.01;62.87
40788;BME280;26497;52.494;7.546;2022-12-11T00:39:10;100518.47;;;4.75;64.12
40788;BME280;26497;52.494;7.546;2022-12-11T00:41:37;100509.19;;;4.89;63.42
40788;BME280;26497;52.494;7.546;2022-12-11T00:44:04;100507.53;;;4.93;63.69
40788;BME280;26497;52.494;7.546;2022-12-11T00:46:31;100511.34;;;4.67;64.44
40788;BME280;26497;52.494;7.546;2022-12-11T00:48:59;100520.72;;;4.56;64.17
40788;BME280;26497;52.494;7.546;2022-12-11T00:51:27;100516.66;;;4.70;64.29
40788;BME280;26497;52.494;7.546;2022-12-11T00:53:54;100516.59;;;4.67;64.68
40788;BME280;26497;52.494;7.546;2022-12-11T00:56:22;100516.84;;;4.78;64.44
40788;BME280;26497;52.494;7.546;2022-12-11T00:58:50;100506.81;;;4.57;64.56
40788;BME280;26497;52.494;7.546;2022-12-11T01:01:20;100505.34;;;4.71;64.45
40788;BME280;26497;52.494;7.546;2022-12-11T01:03:47;100511.34;;;4.67;64.63
40788;BME280;26497;52.494;7.546;2022-12-11T01:06:17;100507.16;;;4.74;64.73
40788;BME280;26497;52.494;7.546;2022-12-11T01:08:46;100510.63;;;4.73;64.48
40788;BME280;26497;52.494;7.546;2022-12-11T01:11:15;100506.66;;;4.92;63.68
40788;BME280;26497;52.494;7.546;2022-12-11T01:13:42;100502.25;;;4.90;63.80
40788;BME280;26497;52.494;7.546;2022-12-11T01:16:12;100501.66;;;5.05;63.47
40788;BME280;26497;52.494;7.546;2022-12-11T01:18:40;100508.91;;;5.18;63.07
40788;BME280;26497;52.494;7.546;2022-12-11T01:21:09;100496.00;;;5.27;62.80
40788;BME280;26497;52.494;7.546;2022-12-11T01:23:36;100495.16;;;5.28;62.73
40788;BME280;26497;52.494;7.546;2022-12-11T01:26:07;100501.28;;;5.29;62.32
40788;BME280;26497;52.494;7.546;2022-12-11T01:28:35;100504.59;;;5.20;62.53
40788;BME280;26497;52.494;7.546;2022-12-11T01:31:06;100507.38;;;5.31;62.33
40788;BME280;26497;52.494;7.546;2022-12-11T01:33:33;100509.06;;;5.27;62.24
40788;BME280;26497;52.494;7.546;2022-12-11T01:36:00;100509.88;;;5.23;62.18
40788;BME280;26497;52.494;7.546;2022-12-11T01:38:27;100506.03;;;5.06;62.71
40788;BME280;26497;52.494;7.546;2022-12-11T01:40:54;100504.94;;;4.93;62.59
40788;BME280;26497;52.494;7.546;2022-12-11T01:43:22;100510.34;;;4.59;63.36
40788;BME280;26497;52.494;7.546;2022-12-11T01:45:49;100515.44;;;4.54;63.86
40788;BME280;26497;52.494;7.546;2022-12-11T01:48:19;100513.53;;;4.46;64.34
40788;BME280;26497;52.494;7.546;2022-12-11T01:50:49;100510.44;;;4.65;63.61
40788;BME280;26497;52.494;7.546;2022-12-11T01:53:21;100512.78;;;4.94;62.95
40788;BME280;26497;52.494;7.546;2022-12-11T01:55:52;100511.03;;;4.93;63.10
40788;BME280;26497;52.494;7.546;2022-12-11T01:58:26;100508.03;;;5.18;62.29
40788;BME280;26497;52.494;7.546;2022-12-11T02:00:54;100512.53;;;5.26;61.82
40788;BME280;26497;52.494;7.546;2022-12-11T02:03:22;100506.28;;;5.18;62.03
40788;BME280;26497;52.494;7.546;2022-12-11T02:05:49;100515.63;;;5.05;62.14
40788;BME280;26497;52.494;7.546;2022-12-11T02:08:16;100518.31;;;5.10;62.22
40788;BME280;26497;52.494;7.546;2022-12-11T02:10:58;100519.00;;;4.99;62.19
40788;BME280;26497;52.494;7.546;2022-12-11T02:13:38;100523.97;;;4.87;62.46
40788;BME280;26497;52.494;7.546;2022-12-11T02:16:17;100532.66;;;4.86;62.53
40788;BME280;26497;52.494;7.546;2022-12-11T02:18:52;100523.78;;;4.78;62.84
40788;BME280;26497;52.494;7.546;2022-12-11T02:21:25;100518.88;;;4.93;62.35
40788;BME280;26497;52.494;7.546;2022-12-11T02:24:31;100520.69;;;4.97;62.02
40788;BME280;26497;52.494;7.546;2022-12-11T02:27:13;100517.81;;;4.85;62.08
40788;BME280;26497;52.494;7.546;2022-12-11T02:29:49;100528.44;;;4.50;62.73
40788;BME280;26497;52.494;7.546;2022-12-11T02:32:21;100519.38;;;4.75;62.60
40788;BME280;26497;52.494;7.546;2022-12-11T02:34:56;100514.09;;;4.72;62.78
40788;BME280;26497;52.494;7.546;2022-12-11T02:37:28;100516.59;;;4.67;62.58
40788;BME280;26497;52.494;7.546;2022-12-11T02:39:56;100521.28;;;4.82;62.20
40788;BME280;26497;52.494;7.546;2022-12-11T02:42:27;100503.31;;;4.99;61.70
40788;BME280;26497;52.494;7.546;2022-12-11T02:44:59;100515.78;;;5.13;61.57
40788;BME280;26497;52.494;7.546;2022-12-11T02:47:28;100501.06;;;5.18;61.54
40788;BME280;26497;52.494;7.546;2022-12-11T02:49:59;100495.59;;;5.06;61.67
40788;BME280;26497;52.494;7.546;2022-12-11T02:52:28;100492.22;;;5.11;61.24
40788;BME280;26497;52.494;7.546;2022-12-11T02:54:59;100499.28;;;5.15;61.28
40788;BME280;26497;52.494;7.546;2022-12-11T02:57:32;100493.31;;;5.23;61.40
40788;BME280;26497;52.494;7.546;2022-12-11T03:00:04;100499.28;;;5.15;61.02
40788;BME280;26497;52.494;7.546;2022-12-11T03:02:32;100503.69;;;4.75;62.10
40788;BME280;26497;52.494;7.546;2022-12-11T03:04:59;100498.66;;;4.84;62.42
40788;BME280;26497;52.494;7.546;2022-12-11T03:07:30;100495.94;;;4.80;61.91
40788;BME280;26497;52.494;7.546;2022-12-11T03:09:59;100499.41;;;4.79;62.50
40788;BME280;26497;52.494;7.546;2022-12-11T03:12:28;100506.84;;;5.01;61.81
40788;BME280;26497;52.494;7.546;2022-12-11T03:14:59;100507.91;;;4.68;62.53
40788;BME280;26497;52.494;7.546;2022-12-11T03:17:33;100509.66;;;4.68;62.78
40788;BME280;26497;52.494;7.546;2022-12-11T03:20:10;100504.63;;;4.79;62.41
40788;BME280;26497;52.494;7.546;2022-12-11T03:22:45;100502.19;;;4.86;62.18
40788;BME280;26497;52.494;7.546;2022-12-11T03:25:19;100502.22;;;4.88;62.14
40788;BME280;26497;52.494;7.546;2022-12-11T03:27:53;100500.56;;;4.92;61.58
40788;BME280;26497;52.494;7.546;2022-12-11T03:30:23;100512.09;;;4.60;62.64
40788;BME280;26497;52.494;7.546;2022-12-11T03:32:57;100511.44;;;4.29;63.43
40788;BME280;26497;52.494;7.546;2022-12-11T03:35:31;100508.19;;;4.39;63.10
40788;BME280;26497;52.494;7.546;2022-12-11T03:38:00;100518.41;;;4.70;62.96
40788;BME280;26497;52.494;7.546;2022-12-11T03:40:31;100512.19;;;4.63;62.49
40788;BME280;26497;52.494;7.546;2022-12-11T03:43:00;100511.59;;;4.78;62.34
40788;BME280;26497;52.494;7.546;2022-12-11T03:45:29;100510.84;;;4.84;62.16
40788;BME280;26497;52.494;7.546;2022-12-11T03:47:59;100507.19;;;4.76;62.38
40788;BME280;26497;52.494;7.546;2022-12-11T03:50:30;100510.41;;;4.62;62.94
40788;BME280;26497;52.494;7.546;2022-12-11T03:52:58;100503.31;;;4.56;63.20
40788;BME280;26497;52.494;7.546;2022-12-11T03:55:27;100496.81;;;4.37;63.54
40788;BME280;26497;52.494;7.546;2022-12-11T03:57:56;100511.66;;;4.40;63.69
40788;BME280;26497;52.494;7.546;2022-12-11T04:00:23;100500.41;;;4.42;63.65
40788;BME280;26497;52.494;7.546;2022-12-11T04:06:32;100502.16;;;4.43;63.11
40788;BME280;26497;52.494;7.546;2022-12-11T04:08:59;100504.66;;;4.37;63.50
40788;BME280;26497;52.494;7.546;2022-12-11T04:11:26;100497.09;;;4.50;63.15
40788;BME280;26497;52.494;7.546;2022-12-11T04:14:05;100496.13;;;4.46;63.26
40788;BME280;26497;52.494;7.546;2022-12-11T04:16:50;100496.72;;;4.76;63.01
40788;BME280;26497;52.494;7.546;2022-12-11T04:19:18;100486.78;;;5.00;62.25
40788;BME280;26497;52.494;7.546;2022-12-11T04:22:05;100491.25;;;5.06;62.24
40788;BME280;26497;52.494;7.546;2022-12-11T04:24:49;100485.72;;;5.38;60.97
40788;BME280;26497;52.494;7.546;2022-12-11T04:27:17;100487.59;;;5.44;60.75
40788;BME280;26497;52.494;7.546;2022-12-11T04:30:08;100487.44;;;5.36;60.87
40788;BME280;26497;52.494;7.546;2022-12-11T04:32:35;100487.47;;;5.38;60.72
40788;BME280;26497;52.494;7.546;2022-12-11T04:35:03;100489.88;;;5.25;60.66
40788;BME280;26497;52.494;7.546;2022-12-11T04:37:31;100482.81;;;5.21;61.12
40788;BME280;26497;52.494;7.546;2022-12-11T04:39:58;100482.75;;;5.18;61.03
40788;BME280;26497;52.494;7.546;2022-12-11T04:42:25;100483.81;;;5.28;60.88
40788;BME280;26497;52.494;7.546;2022-12-11T04:44:52;100486.78;;;5.00;61.13
40788;BME280;26497;52.494;7.546;2022-12-11T04:47:19;100483.38;;;5.05;61.60
40788;BME280;26497;52.494;7.546;2022-12-11T04:49:46;100485.50;;;4.80;62.17
40788;BME280;26497;52.494;7.546;2022-12-11T04:52:13;100486.84;;;4.61;62.37
40788;BME280;26497;52.494;7.546;2022-12-11T04:54:42;100480.91;;;4.68;62.54
40788;BME280;26497;52.494;7.546;2022-12-11T04:57:09;100481.44;;;4.51;62.99
40788;BME280;26497;52.494;7.546;2022-12-11T04:59:36;100480.13;;;4.72;63.01
40788;BME280;26497;52.494;7.546;2022-12-11T05:02:03;100474.31;;;4.85;62.77
40788;BME280;26497;52.494;7.546;2022-12-11T05:04:31;100481.28;;;4.86;62.46
40788;BME280;26497;52.494;7.546;2022-12-11T05:06:58;100480.13;;;4.73;62.67
40788;BME280;26497;52.494;7.546;2022-12-11T05:09:25;100475.03;;;4.78;62.63
40788;BME280;26497;52.494;7.546;2022-12-11T05:11:54;100477.13;;;4.96;62.40
40788;BME280;26497;52.494;7.546;2022-12-11T05:14:21;100478.09;;;5.01;61.79
40788;BME280;26497;52.494;7.546;2022-12-11T05:16:48;100473.53;;;4.91;62.16
40788;BME280;26497;52.494;7.546;2022-12-11T05:19:15;100478.56;;;4.82;62.11
40788;BME280;26497;52.494;7.546;2022-12-11T05:21:42;100473.72;;;5.00;62.20
40788;BME280;26497;52.494;7.546;2022-12-11T05:24:15;100467.38;;;4.87;62.31
40788;BME280;26497;52.494;7.546;2022-12-11T05:26:42;100462.44;;;5.03;62.00
40788;BME280;26497;52.494;7.546;2022-12-11T05:29:11;100460.88;;;5.13;61.55
40788;BME280;26497;52.494;7.546;2022-12-11T05:31:38;100463.00;;;4.88;62.42
40788;BME280;26497;52.494;7.546;2022-12-11T05:34:05;100467.44;;;4.92;62.18
40788;BME280;26497;52.494;7.546;2022-12-11T05:36:33;100464.84;;;4.92;62.35
40788;BME280;26497;52.494;7.546;2022-12-11T05:39:01;100458.63;;;4.85;62.51
40788;BME280;26497;52.494;7.546;2022-12-11T05:41:30;100465.13;;;5.08;62.16
40788;BME280;26497;52.494;7.546;2022-12-11T05:43:58;100467.88;;;5.14;61.66
40788;BME280;26497;52.494;7.546;2022-12-11T05:46:28;100455.69;;;5.14;61.79
40788;BME280;26497;52.494;7.546;2022-12-11T05:48:58;100455.06;;;5.28;61.47
40788;BME280;26497;52.494;7.546;2022-12-11T05:51:26;100461.34;;;5.39;61.24
40788;BME280;26497;52.494;7.546;2022-12-11T05:53:55;100453.53;;;5.41;61.03
40788;BME280;26497;52.494;7.546;2022-12-11T05:56:25;100457.69;;;5.31;60.90
40788;BME280;26497;52.494;7.546;2022-12-11T05:58:53;100456.78;;;5.27;61.20
40788;BME280;26497;52.494;7.546;2022-12-11T06:01:24;100461.03;;;5.22;60.99
40788;BME280;26497;52.494;7.546;2022-12-11T06:03:54;100450.34;;;5.10;61.30
40788;BME280;26497;52.494;7.546;2022-12-11T06:06:22;100459.78;;;5.01;61.49
40788;BME280;26497;52.494;7.546;2022-12-11T06:08:51;100464.53;;;4.77;62.52
40788;BME280;26497;52.494;7.546;2022-12-11T06:11:18;100454.25;;;4.86;62.68
40788;BME280;26497;52.494;7.546;2022-12-11T06:13:46;100458.56;;;4.82;62.40
40788;BME280;26497;52.494;7.546;2022-12-11T06:16:14;100454.50;;;4.98;62.24
40788;BME280;26497;52.494;7.546;2022-12-11T06:18:43;100456.56;;;5.15;61.71
40788;BME280;26497;52.494;7.546;2022-12-11T06:21:13;100464.09;;;4.99;62.09
40788;BME280;26497;52.494;7.546;2022-12-11T06:23:41;100454.59;;;5.03;62.36
40788;BME280;26497;52.494;7.546;2022-12-11T06:26:09;100453.97;;;5.16;62.00
40788;BME280;26497;52.494;7.546;2022-12-11T06:28:36;100451.53;;;5.27;61.79
40788;BME280;26497;52.494;7.546;2022-12-11T06:31:04;100449.56;;;5.12;62.18
40788;BME280;26497;52.494;7.546;2022-12-11T06:33:31;100456.25;;;4.98;62.32
40788;BME280;26497;52.494;7.546;2022-12-11T06:36:01;100448.75;;;5.16;61.94
40788;BME280;26497;52.494;7.546;2022-12-11T06:38:29;100448.72;;;5.15;62.06
40788;BME280;26497;52.494;7.546;2022-12-11T06:40:58;100452.69;;;5.43;61.48
40788;BME280;26497;52.494;7.546;2022-12-11T06:43:25;100453.81;;;5.58;61.27
40788;BME280;26497;52.494;7.546;2022-12-11T06:45:53;100448.72;;;5.66;60.67
40788;BME280;26497;52.494;7.546;2022-12-11T06:48:20;100440.81;;;5.64;60.60
40788;BME280;26497;52.494;7.546;2022-12-11T06:50:47;100441.78;;;5.68;60.53
40788;BME280;26497;52.494;7.546;2022-12-11T06:53:14;100449.53;;;5.63;60.61
40788;BME280;26497;52.494;7.546;2022-12-11T06:55:42;100449.56;;;5.65;60.72
40788;BME280;26497;52.494;7.546;2022-12-11T06:58:10;100449.94;;;5.36;61.14
40788;BME280;26497;52.494;7.546;2022-12-11T07:00:37;100455.69;;;5.16;61.63
40788;BME280;26497;52.494;7.546;2022-12-11T07:03:05;100448.00;;;5.24;61.89
40788;BME280;26497;52.494;7.546;2022-12-11T07:05:32;100445.63;;;5.39;61.69
40788;BME280;26497;52.494;7.546;2022-12-11T07:07:59;100451.72;;;5.37;61.31
40788;BME280;26497;52.494;7.546;2022-12-11T07:10:27;100455.63;;;5.11;62.07
40788;BME280;26497;52.494;7.546;2022-12-11T07:12:55;100449.56;;;5.12;62.25
40788;BME280;26497;52.494;7.546;2022-12-11T07:15:22;100458.38;;;5.19;62.22
40788;BME280;26497;52.494;7.546;2022-12-11T07:17:49;100453.25;;;5.25;61.90
40788;BME280;26497;52.494;7.546;2022-12-11T07:20:16;100461.66;;;5.09;62.46
40788;BME280;26497;52.494;7.546;2022-12-11T07:22:43;100462.31;;;4.97;62.90
40788;BME280;26497;52.494;7.546;2022-12-11T07:25:10;100474.00;;;5.14;62.58
40788;BME280;26497;52.494;7.546;2022-12-11T07:27:37;100470.72;;;5.26;62.60
40788;BME280;26497;52.494;7.546;2022-12-11T07:30:08;100466.09;;;5.13;62.88
40788;BME280;26497;52.494;7.546;2022-12-11T07:32:35;100456.56;;;5.15;62.88
40788;BME280;26497;52.494;7.546;2022-12-11T07:35:03;100462.44;;;5.03;62.99
40788;BME280;26497;52.494;7.546;2022-12-11T07:37:31;100461.59;;;5.06;62.80
40788;BME280;26497;52.494;7.546;2022-12-11T07:39:58;100456.59;;;5.18;63.04
40788;BME280;26497;52.494;7.546;2022-12-11T07:42:25;100450.00;;;5.40;62.47
40788;BME280;26497;52.494;7.546;2022-12-11T07:44:52;100459.44;;;5.29;62.27
40788;BME280;26497;52.494;7.546;2022-12-11T07:47:20;100461.94;;;5.24;62.65
40788;BME280;26497;52.494;7.546;2022-12-11T07:49:48;100459.44;;;5.30;62.65
40788;BME280;26497;52.494;7.546;2022-12-11T07:52:15;100462.34;;;5.47;62.07
40788;BME280;26497;52.494;7.546;2022-12-11T07:54:42;100469.22;;;5.41;62.37
40788;BME280;26497;52.494;7.546;2022-12-11T07:57:09;100469.34;;;5.49;61.89
40788;BME280;26497;52.494;7.546;2022-12-11T07:59:36;100465.75;;;5.42;62.06
40788;BME280;26497;52.494;7.546;2022-12-11T08:02:03;100465.97;;;5.54;62.18
40788;BME280;26497;52.494;7.546;2022-12-11T08:04:31;100472.38;;;5.73;61.51
40788;BME280;26497;52.494;7.546;2022-12-11T08:06:58;100466.88;;;5.56;61.59
40788;BME280;26497;52.494;7.546;2022-12-11T08:09:25;100456.94;;;5.37;61.92
40788;BME280;26497;52.494;7.546;2022-12-11T08:11:52;100470.72;;;5.26;62.82
40788;BME280;26497;52.494;7.546;2022-12-11T08:14:19;100469.28;;;5.44;62.14
40788;BME280;26497;52.494;7.546;2022-12-11T08:16:46;100464.22;;;5.06;63.03
40788;BME280;26497;52.494;7.546;2022-12-11T08:19:14;100473.31;;;5.26;62.47
40788;BME280;26497;52.494;7.546;2022-12-11T08:21:43;100476.50;;;5.08;62.66
40788;BME280;26497;52.494;7.546;2022-12-11T08:24:10;100473.13;;;4.71;63.76
40788;BME280;26497;52.494;7.546;2022-12-11T08:26:37;100477.13;;;4.96;63.42
40788;BME280;26497;52.494;7.546;2022-12-11T08:29:04;100474.63;;;5.02;63.30
40788;BME280;26497;52.494;7.546;2022-12-11T08:31:32;100479.34;;;5.21;62.83
40788;BME280;26497;52.494;7.546;2022-12-11T08:33:59;100482.22;;;4.90;63.33
40788;BME280;26497;52.494;7.546;2022-12-11T08:36:26;100477.81;;;4.87;63.82
40788;BME280;26497;52.494;7.546;2022-12-11T08:38:55;100490.16;;;4.52;64.30
40788;BME280;26497;52.494;7.546;2022-12-11T08:41:24;100482.63;;;4.67;64.10
40788;BME280;26497;52.494;7.546;2022-12-11T08:43:51;100490.53;;;4.70;64.44
40788;BME280;26497;52.494;7.546;2022-12-11T08:46:21;100483.47;;;4.65;63.98
40788;BME280;26497;52.494;7.546;2022-12-11T08:48:49;100479.94;;;4.64;64.09
40788;BME280;26497;52.494;7.546;2022-12-11T08:51:20;100483.03;;;4.45;64.89
40788;BME280;26497;52.494;7.546;2022-12-11T08:53:48;100473.94;;;4.68;64.15
40788;BME280;26497;52.494;7.546;2022-12-11T08:56:19;100487.00;;;4.68;64.30
40788;BME280;26497;52.494;7.546;2022-12-11T08:58:48;100473.81;;;5.07;63.09
40788;BME280;26497;52.494;7.546;2022-12-11T09:01:19;100462.69;;;5.15;62.36
40788;BME280;26497;52.494;7.546;2022-12-11T09:03:47;100470.72;;;5.26;62.41
40788;BME280;26497;52.494;7.546;2022-12-11T09:06:16;100469.50;;;5.58;61.94
40788;BME280;26497;52.494;7.546;2022-12-11T09:08:47;100469.66;;;5.66;61.48
40788;BME280;26497;52.494;7.546;2022-12-11T09:11:18;100470.72;;;5.77;61.42
40788;BME280;26497;52.494;7.546;2022-12-11T09:13:46;100466.31;;;5.76;60.97
40788;BME280;26497;52.494;7.546;2022-12-11T09:16:16;100466.44;;;5.84;60.71
40788;BME280;26497;52.494;7.546;2022-12-11T09:18:45;100458.53;;;5.79;60.71
40788;BME280;26497;52.494;7.546;2022-12-11T09:21:16;100453.53;;;5.96;60.47
40788;BME280;26497;52.494;7.546;2022-12-11T09:23:43;100461.53;;;6.04;60.33
40788;BME280;26497;52.494;7.546;2022-12-11T09:26:14;100458.38;;;6.25;59.97
40788;BME280;26497;52.494;7.546;2022-12-11T09:28:43;100459.53;;;6.47;59.57
40788;BME280;26497;52.494;7.546;2022-12-11T09:31:11;100448.25;;;6.55;59.17
40788;BME280;26497;52.494;7.546;2022-12-11T09:33:39;100452.75;;;6.67;58.92
40788;BME280;26497;52.494;7.546;2022-12-11T09:36:07;100456.31;;;6.70;58.43
40788;BME280;26497;52.494;7.546;2022-12-11T09:38:34;100455.31;;;6.59;59.07
40788;BME280;26497;52.494;7.546;2022-12-11T09:41:02;100455.41;;;6.68;58.56
40788;BME280;26497;52.494;7.546;2022-12-11T09:43:47;100457.25;;;6.77;58.27
40788;BME280;26497;52.494;7.546;2022-12-11T09:46:16;100449.38;;;6.77;58.54
40788;BME280;26497;52.494;7.546;2022-12-11T09:48:47;100448.56;;;6.79;58.44
40788;BME280;26497;52.494;7.546;2022-12-11T09:51:20;100447.78;;;6.88;58.09
40788;BME280;26497;52.494;7.546;2022-12-11T09:53:51;100450.50;;;6.96;58.01
40788;BME280;26497;52.494;7.546;2022-12-11T09:56:24;100442.56;;;6.90;57.81
40788;BME280;26497;52.494;7.546;2022-12-11T09:59:03;100443.34;;;6.83;58.04
40788;BME280;26497;52.494;7.546;2022-12-11T10:01:40;100440.78;;;6.87;58.24
40788;BME280;26497;52.494;7.546;2022-12-11T10:04:30;100436.50;;;6.94;57.79
40788;BME280;26497;52.494;7.546;2022-12-11T10:07:10;100440.91;;;6.98;57.46
40788;BME280;26497;52.494;7.546;2022-12-11T10:09:46;100442.59;;;6.93;57.60
40788;BME280;26497;52.494;7.546;2022-12-11T10:12:30;100443.44;;;6.90;57.63
40788;BME280;26497;52.494;7.546;2022-12-11T10:15:23;100438.28;;;7.00;57.64
40788;BME280;26497;52.494;7.546;2022-12-11T10:17:54;100435.59;;;6.92;57.64
40788;BME280;26497;52.494;7.546;2022-12-11T10:20:25;100437.28;;;6.88;57.93
40788;BME280;26497;52.494;7.546;2022-12-11T10:22:56;100428.69;;;7.02;57.62
40788;BME280;26497;52.494;7.546;2022-12-11T10:25:27;100429.66;;;7.08;57.22
40788;BME280;26497;52.494;7.546;2022-12-11T10:27:55;100424.22;;;6.90;57.52
40788;BME280;26497;52.494;7.546;2022-12-11T10:30:26;100424.31;;;6.99;57.70
40788;BME280;26497;52.494;7.546;2022-12-11T10:33:03;100439.22;;;7.03;57.01
40788;BME280;26497;52.494;7.546;2022-12-11T10:35:38;100439.25;;;7.08;57.11
40788;BME280;26497;52.494;7.546;2022-12-11T10:38:14;100441.91;;;7.10;57.07
40788;BME280;26497;52.494;7.546;2022-12-11T10:40:44;100436.69;;;7.14;56.95
40788;BME280;26497;52.494;7.546;2022-12-11T10:43:12;100437.56;;;7.12;57.02
40788;BME280;26497;52.494;7.546;2022-12-11T10:45:50;100429.75;;;7.18;56.66
40788;BME280;26497;52.494;7.546;2022-12-11T10:48:17;100434.00;;;7.08;56.57
40788;BME280;26497;52.494;7.546;2022-12-11T10:50:58;100426.06;;;7.02;56.62
40788;BME280;26497;52.494;7.546;2022-12-11T10:53:26;100427.88;;;7.04;56.48
40788;BME280;26497;52.494;7.546;2022-12-11T10:55:54;100430.41;;;7.00;56.82
40788;BME280;26497;52.494;7.546;2022-12-11T10:58:25;100428.78;;;7.10;56.46
40788;BME280;26497;52.494;7.546;2022-12-11T11:01:06;100427.84;;;7.03;56.51
40788;BME280;26497;52.494;7.546;2022-12-11T11:03:41;100430.56;;;7.11;56.32
40788;BME280;26497;52.494;7.546;2022-12-11T11:06:16;100432.31;;;7.12;55.94
40788;BME280;26497;52.494;7.546;2022-12-11T11:08:45;100427.94;;;7.12;56.03
40788;BME280;26497;52.494;7.546;2022-12-11T11:11:25;100427.84;;;7.01;56.12
40788;BME280;26497;52.494;7.546;2022-12-11T11:14:12;100429.38;;;6.84;56.12
40788;BME280;26497;52.494;7.546;2022-12-11T11:16:44;100428.34;;;6.69;56.26
40788;BME280;26497;52.494;7.546;2022-12-11T11:19:20;100426.50;;;6.60;57.06
40788;BME280;26497;52.494;7.546;2022-12-11T11:21:51;100422.88;;;6.49;57.43
40788;BME280;26497;52.494;7.546;2022-12-11T11:24:27;100421.97;;;6.48;57.24
40788;BME280;26497;52.494;7.546;2022-12-11T11:26:56;100421.00;;;6.39;57.29
40788;BME280;26497;52.494;7.546;2022-12-11T11:29:29;100415.16;;;6.64;56.83
40788;BME280;26497;52.494;7.546;2022-12-11T11:32:13;100412.56;;;6.64;57.13
40788;BME280;26497;52.494;7.546;2022-12-11T11:34:41;100403.56;;;6.41;57.27
40788;BME280;26497;52.494;7.546;2022-12-11T11:37:29;100407.97;;;6.46;57.41
40788;BME280;26497;52.494;7.546;2022-12-11T11:40:05;100401.13;;;6.58;57.22
40788;BME280;26497;52.494;7.546;2022-12-11T11:42:44;100403.94;;;6.73;57.12
40788;BME280;26497;52.494;7.546;2022-12-11T11:45:16;100403.28;;;6.93;56.73
40788;BME280;26497;52.494;7.546;2022-12-11T11:47:57;100405.97;;;6.99;56.52
40788;BME280;26497;52.494;7.546;2022-12-11T11:50:29;100400.59;;;6.88;56.50
40788;BME280;26497;52.494;7.546;2022-12-11T11:53:03;100402.38;;;6.91;56.34
40788;BME280;26497;52.494;7.546;2022-12-11T11:55:41;100397.13;;;6.91;56.32
40788;BME280;26497;52.494;7.546;2022-12-11T11:58:16;100397.06;;;6.85;56.15
40788;BME280;26497;52.494;7.546;2022-12-11T12:00:48;100391.13;;;7.03;56.19
40788;BME280;26497;52.494;7.546;2022-12-11T12:03:19;100390.34;;;7.12;55.94
40788;BME280;26497;52.494;7.546;2022-12-11T12:05:53;100396.56;;;7.25;55.73
40788;BME280;26497;52.494;7.546;2022-12-11T12:08:36;100390.47;;;7.26;55.65
40788;BME280;26497;52.494;7.546;2022-12-11T12:11:20;100392.22;;;7.25;55.74
40788;BME280;26497;52.494;7.546;2022-12-11T12:14:03;100398.44;;;7.38;55.34
40788;BME280;26497;52.494;7.546;2022-12-11T12:16:43;100390.53;;;7.35;55.47
40788;BME280;26497;52.494;7.546;2022-12-11T12:19:23;100390.63;;;7.46;55.02
40788;BME280;26497;52.494;7.546;2022-12-11T12:22:05;100387.94;;;7.40;55.22
40788;BME280;26497;52.494;7.546;2022-12-11T12:24:43;100388.88;;;7.43;55.03
40788;BME280;26497;52.494;7.546;2022-12-11T12:27:20;100391.47;;;7.40;55.33
40788;BME280;26497;52.494;7.546;2022-12-11T12:29:53;100389.72;;;7.42;54.83
40788;BME280;26497;52.494;7.546;2022-12-11T12:32:29;100384.44;;;7.37;54.98
40788;BME280;26497;52.494;7.546;2022-12-11T12:35:08;100382.69;;;7.40;54.92
40788;BME280;26497;52.494;7.546;2022-12-11T12:37:51;100384.44;;;7.37;55.04
40788;BME280;26497;52.494;7.546;2022-12-11T12:40:29;100380.06;;;7.40;54.91
40788;BME280;26497;52.494;7.546;2022-12-11T12:43:08;100381.84;;;7.44;55.15
40788;BME280;26497;52.494;7.546;2022-12-11T12:45:45;100379.19;;;7.36;55.01
40788;BME280;26497;52.494;7.546;2022-12-11T12:48:16;100381.84;;;7.44;54.88
40788;BME280;26497;52.494;7.546;2022-12-11T12:50:47;100374.03;;;7.50;55.01
40788;BME280;26497;52.494;7.546;2022-12-11T12:53:18;100381.81;;;7.37;55.08
40788;BME280;26497;52.494;7.546;2022-12-11T12:55:46;100379.19;;;7.41;55.28
40788;BME280;26497;52.494;7.546;2022-12-11T12:58:25;100380.06;;;7.35;54.86
40788;BME280;26497;52.494;7.546;2022-12-11T13:01:04;100380.06;;;7.38;55.26
40788;BME280;26497;52.494;7.546;2022-12-11T13:03:36;100370.38;;;7.29;55.58
40788;BME280;26497;52.494;7.546;2022-12-11T13:06:28;100380.84;;;7.29;55.16
40788;BME280;26497;52.494;7.546;2022-12-11T13:08:57;100380.84;;;7.25;55.34
40788;BME280;26497;52.494;7.546;2022-12-11T13:11:31;100382.50;;;7.15;55.36
40788;BME280;26497;52.494;7.546;2022-12-11T13:14:06;100372.88;;;7.15;55.53
40788;BME280;26497;52.494;7.546;2022-12-11T13:16:38;100375.59;;;7.23;55.31
40788;BME280;26497;52.494;7.546;2022-12-11T13:19:17;100376.47;;;7.22;55.26
40788;BME280;26497;52.494;7.546;2022-12-11T13:22:01;100377.34;;;7.26;55.27
40788;BME280;26497;52.494;7.546;2022-12-11T13:24:30;100378.22;;;7.23;54.89